Time;durP1;ratioP1;P1;durP2;ratioP2;P2;SDS_P1;SDS_P2;PMS_P1;PMS_P2;Temp;Humidity;BMP_temperature;BMP_pressure;BME280_temperature;BME280_humidity;BME280_pressure;Samples;Min_cycle;Max_cycle;Signal;HPM_P1;HPM_P2
2023/03/09 00:01:34;;;;;;;12.13;3.40;;;;;;;;;;5028348;28;20037;-40
2023/03/09 00:04:01;;;;;;;15.00;4.15;;;;;;;;;;5027634;28;20548;-40
2023/03/09 00:06:28;;;;;;;23.27;3.55;;;;;;;;;;5028299;28;20017;-40
2023/03/09 00:08:55;;;;;;;21.45;4.53;;;;;;;;;;5027641;28;20033;-40
2023/03/09 00:11:22;;;;;;;30.48;4.60;;;;;;;;;;5028267;28;20071;-40
2023/03/09 00:13:50;;;;;;;20.75;3.80;;;;;;;;;;5026487;28;20025;-41
2023/03/09 00:16:25;;;;;;;18.63;4.80;;;;;;;;;;5026212;28;20048;-40
2023/03/09 00:18:53;;;;;;;15.35;4.78;;;;;;;;;;5025463;28;20075;-41
2023/03/09 00:21:37;;;;;;;26.90;6.07;;;;;;;;;;5027981;28;20025;-40
2023/03/09 00:24:09;;;;;;;19.13;6.90;;;;;;;;;;5028313;28;20080;-40
2023/03/09 00:26:41;;;;;;;20.23;6.13;;;;;;;;;;5027309;28;20049;-39
2023/03/09 00:29:09;;;;;;;30.63;8.25;;;;;;;;;;5027954;28;20095;-40
2023/03/09 00:31:36;;;;;;;35.45;9.80;;;;;;;;;;5029659;28;20025;-39
2023/03/09 00:34:03;;;;;;;24.75;9.35;;;;;;;;;;5027062;28;20111;-40
2023/03/09 00:36:30;;;;;;;34.80;9.73;;;;;;;;;;5028319;28;20032;-40
2023/03/09 00:38:58;;;;;;;29.55;8.35;;;;;;;;;;5029521;28;20132;-40
2023/03/09 00:41:30;;;;;;;28.00;9.70;;;;;;;;;;5027501;28;20034;-40
2023/03/09 00:43:58;;;;;;;29.92;10.70;;;;;;;;;;5029374;28;20124;-40
2023/03/09 00:46:25;;;;;;;22.35;10.35;;;;;;;;;;5028128;28;20033;-40
2023/03/09 00:48:52;;;;;;;29.25;10.23;;;;;;;;;;5029131;28;20042;-40
2023/03/09 00:51:19;;;;;;;32.90;10.13;;;;;;;;;;5029468;28;20553;-39
2023/03/09 00:53:46;;;;;;;27.52;9.80;;;;;;;;;;5027928;28;20029;-40
2023/03/09 00:56:17;;;;;;;30.45;9.30;;;;;;;;;;5027728;28;20037;-40
2023/03/09 00:58:44;;;;;;;27.90;9.65;;;;;;;;;;5028131;28;20026;-39
2023/03/09 01:01:13;;;;;;;26.23;9.52;;;;;;;;;;5028058;28;20041;-42
2023/03/09 01:03:40;;;;;;;25.17;9.27;;;;;;;;;;5027283;28;20044;-39
2023/03/09 01:06:07;;;;;;;25.73;9.15;;;;;;;;;;5028038;28;20411;-39
2023/03/09 01:08:34;;;;;;;23.35;8.85;;;;;;;;;;5031524;28;20033;-40
2023/03/09 01:11:01;;;;;;;22.85;8.73;;;;;;;;;;5032768;28;20049;-39
2023/03/09 01:13:28;;;;;;;19.95;7.95;;;;;;;;;;5032765;28;20037;-39
2023/03/09 01:15:55;;;;;;;23.60;8.48;;;;;;;;;;5032092;28;20017;-39
2023/03/09 01:18:22;;;;;;;22.00;8.35;;;;;;;;;;5032417;28;20025;-40
2023/03/09 01:20:49;;;;;;;26.65;9.52;;;;;;;;;;5032349;28;20029;-41
2023/03/09 01:23:16;;;;;;;18.73;8.07;;;;;;;;;;5032246;28;20393;-39
2023/03/09 01:25:43;;;;;;;19.65;7.53;;;;;;;;;;5032291;28;20120;-40
2023/03/09 01:28:11;;;;;;;21.45;7.30;;;;;;;;;;5032147;28;20475;-41
2023/03/09 01:30:39;;;;;;;20.77;7.53;;;;;;;;;;5029672;28;20553;-37
2023/03/09 01:33:05;;;;;;;20.85;7.40;;;;;;;;;;5032192;28;20069;-40
2023/03/09 01:35:33;;;;;;;16.75;6.95;;;;;;;;;;5032518;28;20017;-42
2023/03/09 01:37:59;;;;;;;17.35;7.63;;;;;;;;;;5031696;28;20029;-40
2023/03/09 01:40:28;;;;;;;17.80;6.88;;;;;;;;;;5029762;28;20029;-41
2023/03/09 01:42:59;;;;;;;17.10;6.18;;;;;;;;;;5032826;28;20029;-41
2023/03/09 01:45:26;;;;;;;17.30;6.83;;;;;;;;;;5029004;28;20506;-41
2023/03/09 01:47:53;;;;;;;20.48;6.90;;;;;;;;;;5032618;28;20030;-40
2023/03/09 01:50:27;;;;;;;15.38;7.00;;;;;;;;;;5032093;28;20049;-42
2023/03/09 01:52:56;;;;;;;16.48;6.68;;;;;;;;;;5032511;28;20021;-41
2023/03/09 01:55:25;;;;;;;22.85;7.22;;;;;;;;;;5031244;28;20079;-41
2023/03/09 01:57:55;;;;;;;14.05;6.55;;;;;;;;;;5032730;28;20356;-42
2023/03/09 02:00:26;;;;;;;19.67;6.63;;;;;;;;;;5033261;28;20056;-41
2023/03/09 02:03:08;;;;;;;18.83;7.10;;;;;;;;;;5033665;28;20033;-40
2023/03/09 02:05:35;;;;;;;17.25;6.85;;;;;;;;;;5033919;28;20036;-40
2023/03/09 02:08:02;;;;;;;23.38;6.80;;;;;;;;;;5032542;28;20036;-41
2023/03/09 02:10:35;;;;;;;19.13;6.88;;;;;;;;;;5033553;28;20048;-40
2023/03/09 02:13:09;;;;;;;17.70;6.70;;;;;;;;;;5032113;28;20109;-40
2023/03/09 02:15:36;;;;;;;17.50;6.78;;;;;;;;;;5033727;28;20502;-41
2023/03/09 02:18:03;;;;;;;18.30;7.35;;;;;;;;;;5033347;28;20537;-41
2023/03/09 02:20:53;;;;;;;22.15;7.05;;;;;;;;;;5031374;28;20443;-41
2023/03/09 02:23:25;;;;;;;17.40;6.55;;;;;;;;;;5033446;28;20030;-41
2023/03/09 02:26:02;;;;;;;20.55;7.30;;;;;;;;;;5033644;28;20040;-40
2023/03/09 02:28:29;;;;;;;14.15;6.30;;;;;;;;;;5033068;28;20514;-42
2023/03/09 02:30:57;;;;;;;16.45;6.88;;;;;;;;;;5033356;28;20091;-41
2023/03/09 02:33:25;;;;;;;13.30;6.57;;;;;;;;;;5033457;28;20060;-41
2023/03/09 02:35:53;;;;;;;14.68;6.80;;;;;;;;;;5033391;28;20030;-41
2023/03/09 02:38:20;;;;;;;13.40;6.68;;;;;;;;;;5033242;28;20030;-41
2023/03/09 02:40:48;;;;;;;12.45;6.70;;;;;;;;;;5033323;28;20105;-43
2023/03/09 02:43:16;;;;;;;15.32;6.45;;;;;;;;;;5033204;28;20053;-41
2023/03/09 02:45:43;;;;;;;16.40;7.38;;;;;;;;;;5033212;28;20029;-41
2023/03/09 02:48:10;;;;;;;11.57;6.60;;;;;;;;;;5033044;28;20032;-41
2023/03/09 02:50:37;;;;;;;12.43;6.93;;;;;;;;;;5032809;28;20449;-41
2023/03/09 02:53:04;;;;;;;16.85;6.90;;;;;;;;;;5033164;28;20531;-41
2023/03/09 02:55:31;;;;;;;14.65;6.95;;;;;;;;;;5033026;28;20039;-41
2023/03/09 02:57:58;;;;;;;11.35;6.40;;;;;;;;;;5032881;28;20438;-41
2023/03/09 03:00:26;;;;;;;13.18;6.70;;;;;;;;;;5032301;28;20514;-40
2023/03/09 03:02:53;;;;;;;13.43;6.28;;;;;;;;;;5032478;28;20041;-40
2023/03/09 03:05:20;;;;;;;12.27;6.13;;;;;;;;;;5032732;28;20061;-40
2023/03/09 03:07:47;;;;;;;11.07;5.65;;;;;;;;;;5032692;28;20415;-40
2023/03/09 03:10:14;;;;;;;13.60;6.88;;;;;;;;;;5032679;28;20037;-40
2023/03/09 03:12:41;;;;;;;10.13;6.63;;;;;;;;;;5032560;28;20029;-40
2023/03/09 03:15:09;;;;;;;10.85;6.55;;;;;;;;;;5031265;28;20029;-40
2023/03/09 03:17:36;;;;;;;12.60;6.03;;;;;;;;;;5032562;28;20029;-40
2023/03/09 03:20:05;;;;;;;11.63;6.03;;;;;;;;;;5032546;28;20104;-40
2023/03/09 03:22:32;;;;;;;10.18;6.13;;;;;;;;;;5032440;28;20030;-40
2023/03/09 03:24:59;;;;;;;12.82;6.32;;;;;;;;;;5032126;28;20095;-40
2023/03/09 03:27:26;;;;;;;10.45;5.82;;;;;;;;;;5032395;28;20041;-40
2023/03/09 03:29:53;;;;;;;11.90;6.18;;;;;;;;;;5032025;28;20030;-40
2023/03/09 03:32:20;;;;;;;8.85;5.47;;;;;;;;;;5032379;28;20155;-40
2023/03/09 03:34:46;;;;;;;10.50;5.50;;;;;;;;;;5032325;28;20084;-40
2023/03/09 03:37:13;;;;;;;10.13;5.60;;;;;;;;;;5032016;28;20506;-40
2023/03/09 03:39:40;;;;;;;11.20;5.65;;;;;;;;;;5032149;28;20040;-40
2023/03/09 03:42:07;;;;;;;10.40;5.55;;;;;;;;;;5032130;28;20037;-40
2023/03/09 03:44:34;;;;;;;10.55;5.60;;;;;;;;;;5032034;28;20033;-40
2023/03/09 03:47:02;;;;;;;10.57;5.53;;;;;;;;;;5031860;28;20037;-40
2023/03/09 03:49:29;;;;;;;10.82;5.60;;;;;;;;;;5031714;28;20050;-40
2023/03/09 03:51:56;;;;;;;9.10;5.10;;;;;;;;;;5031939;28;20143;-40
2023/03/09 03:54:23;;;;;;;10.82;5.40;;;;;;;;;;5031953;28;20029;-40
2023/03/09 03:56:50;;;;;;;9.90;5.35;;;;;;;;;;5031808;28;20021;-40
2023/03/09 03:59:16;;;;;;;9.70;5.43;;;;;;;;;;5031750;28;20030;-40
2023/03/09 04:01:43;;;;;;;9.30;5.55;;;;;;;;;;5031772;28;20091;-40
2023/03/09 04:04:10;;;;;;;8.35;5.80;;;;;;;;;;5031538;28;20377;-40
2023/03/09 04:06:37;;;;;;;8.55;4.90;;;;;;;;;;5031484;28;20035;-40
2023/03/09 04:09:04;;;;;;;10.00;5.32;;;;;;;;;;5031389;28;20064;-40
2023/03/09 04:11:31;;;;;;;10.00;5.57;;;;;;;;;;5031527;28;20032;-40
2023/03/09 04:13:58;;;;;;;8.23;5.10;;;;;;;;;;5031349;28;20037;-40
2023/03/09 04:16:25;;;;;;;10.45;5.50;;;;;;;;;;5031178;28;20033;-40
2023/03/09 04:18:52;;;;;;;7.95;4.65;;;;;;;;;;5031534;28;20029;-40
2023/03/09 04:21:19;;;;;;;11.30;5.38;;;;;;;;;;5031375;28;20113;-40
2023/03/09 04:23:49;;;;;;;7.68;4.85;;;;;;;;;;5031356;28;20472;-40
2023/03/09 04:26:16;;;;;;;7.97;4.95;;;;;;;;;;5031247;28;20071;-40
2023/03/09 04:28:43;;;;;;;10.68;5.47;;;;;;;;;;5031366;28;20112;-40
2023/03/09 04:31:10;;;;;;;10.93;5.43;;;;;;;;;;5031373;28;20439;-40
2023/03/09 04:33:37;;;;;;;7.95;4.85;;;;;;;;;;5031346;28;20105;-40
2023/03/09 04:36:04;;;;;;;8.65;4.55;;;;;;;;;;5031268;28;20158;-40
2023/03/09 04:38:31;;;;;;;11.15;4.50;;;;;;;;;;5031234;28;20057;-40
2023/03/09 04:40:58;;;;;;;8.35;4.97;;;;;;;;;;5030019;28;20029;-40
2023/03/09 04:43:25;;;;;;;8.77;5.43;;;;;;;;;;5030332;28;20087;-40
2023/03/09 04:45:52;;;;;;;8.18;5.20;;;;;;;;;;5031208;28;20045;-40
2023/03/09 04:48:19;;;;;;;7.13;4.53;;;;;;;;;;5030897;28;20021;-40
2023/03/09 04:50:45;;;;;;;10.38;4.97;;;;;;;;;;5031236;28;20025;-40
2023/03/09 04:53:13;;;;;;;10.13;5.13;;;;;;;;;;5031142;28;20033;-40
2023/03/09 04:55:39;;;;;;;8.23;5.15;;;;;;;;;;5031126;28;20029;-40
2023/03/09 04:58:06;;;;;;;9.38;5.55;;;;;;;;;;5031029;28;20028;-40
2023/03/09 05:00:33;;;;;;;6.95;4.57;;;;;;;;;;5029660;28;20029;-40
2023/03/09 05:03:00;;;;;;;10.18;5.13;;;;;;;;;;5030757;28;20029;-40
2023/03/09 05:05:27;;;;;;;7.95;5.07;;;;;;;;;;5031104;28;20041;-40
2023/03/09 05:07:54;;;;;;;7.63;4.97;;;;;;;;;;5030858;28;20029;-40
2023/03/09 05:10:21;;;;;;;7.60;4.32;;;;;;;;;;5031013;28;20025;-40
2023/03/09 05:12:48;;;;;;;9.35;5.47;;;;;;;;;;5030925;28;20029;-41
2023/03/09 05:15:15;;;;;;;8.48;4.72;;;;;;;;;;5031000;28;20060;-41
2023/03/09 05:17:42;;;;;;;7.47;4.75;;;;;;;;;;5030813;28;20488;-41
2023/03/09 05:20:10;;;;;;;8.63;5.53;;;;;;;;;;5030820;28;20064;-41
2023/03/09 05:22:38;;;;;;;10.68;4.95;;;;;;;;;;5030668;28;20467;-41
2023/03/09 05:25:06;;;;;;;10.45;5.10;;;;;;;;;;5030900;28;20040;-41
2023/03/09 05:27:33;;;;;;;12.60;5.43;;;;;;;;;;5030650;28;20442;-41
2023/03/09 05:30:00;;;;;;;9.32;4.78;;;;;;;;;;5030822;28;20025;-41
2023/03/09 05:32:27;;;;;;;7.65;5.05;;;;;;;;;;5030679;28;20029;-41
2023/03/09 05:34:53;;;;;;;7.38;5.10;;;;;;;;;;5030790;28;20099;-41
2023/03/09 05:37:20;;;;;;;7.13;4.75;;;;;;;;;;5030711;28;20036;-42
2023/03/09 05:39:47;;;;;;;9.00;4.78;;;;;;;;;;5030821;28;20036;-41
2023/03/09 05:42:14;;;;;;;7.80;4.97;;;;;;;;;;5030773;28;20037;-41
2023/03/09 05:44:41;;;;;;;8.85;4.60;;;;;;;;;;5030713;28;20088;-41
2023/03/09 05:47:08;;;;;;;10.55;5.55;;;;;;;;;;5030618;28;20049;-41
2023/03/09 05:49:35;;;;;;;9.32;4.85;;;;;;;;;;5030635;28;20556;-41
2023/03/09 05:52:02;;;;;;;11.32;5.18;;;;;;;;;;5030773;28;20026;-41
2023/03/09 05:54:29;;;;;;;8.25;4.78;;;;;;;;;;5033282;28;20034;-42
2023/03/09 05:56:56;;;;;;;6.32;4.60;;;;;;;;;;5034171;28;20033;-41
2023/03/09 05:59:23;;;;;;;8.65;4.97;;;;;;;;;;5034035;28;20045;-41
2023/03/09 06:01:50;;;;;;;9.73;5.22;;;;;;;;;;5032181;28;20108;-40
2023/03/09 06:04:17;;;;;;;8.70;5.05;;;;;;;;;;5034456;28;20033;-40
2023/03/09 06:06:44;;;;;;;10.70;5.35;;;;;;;;;;5033512;28;20032;-40
2023/03/09 06:09:11;;;;;;;9.80;5.07;;;;;;;;;;5033184;28;20037;-42
2023/03/09 06:11:38;;;;;;;9.55;5.45;;;;;;;;;;5033877;28;20491;-41
2023/03/09 06:14:05;;;;;;;10.25;4.95;;;;;;;;;;5033758;28;20041;-41
2023/03/09 06:16:32;;;;;;;10.05;4.88;;;;;;;;;;5033367;28;20057;-41
2023/03/09 06:18:59;;;;;;;9.13;5.07;;;;;;;;;;5033660;28;20581;-39
2023/03/09 06:21:26;;;;;;;8.82;4.78;;;;;;;;;;5033622;28;20112;-40
2023/03/09 06:23:56;;;;;;;8.30;4.95;;;;;;;;;;5033452;28;20042;-40
2023/03/09 06:26:24;;;;;;;12.63;5.63;;;;;;;;;;5033310;28;20541;-40
2023/03/09 06:28:51;;;;;;;9.45;5.00;;;;;;;;;;5033439;28;20025;-40
2023/03/09 06:31:19;;;;;;;11.68;5.05;;;;;;;;;;5033412;28;20024;-40
2023/03/09 06:33:47;;;;;;;10.82;4.75;;;;;;;;;;5033469;28;20029;-40
2023/03/09 06:36:15;;;;;;;10.40;5.20;;;;;;;;;;5033409;28;20549;-40
2023/03/09 06:38:42;;;;;;;11.65;5.18;;;;;;;;;;5033155;28;20107;-40
2023/03/09 06:41:12;;;;;;;12.93;5.35;;;;;;;;;;5033138;28;20029;-40
2023/03/09 06:43:40;;;;;;;10.25;5.20;;;;;;;;;;5032970;28;20041;-40
2023/03/09 06:46:08;;;;;;;11.77;4.80;;;;;;;;;;5033107;28;20771;-40
2023/03/09 06:48:35;;;;;;;13.27;5.25;;;;;;;;;;5032848;28;20029;-40
2023/03/09 06:51:02;;;;;;;9.55;5.28;;;;;;;;;;5033056;28;20044;-40
2023/03/09 06:53:29;;;;;;;8.90;4.82;;;;;;;;;;5033034;28;20471;-40
2023/03/09 06:55:59;;;;;;;9.43;5.18;;;;;;;;;;5033021;28;20026;-40
2023/03/09 06:58:26;;;;;;;8.00;4.45;;;;;;;;;;5032753;28;20083;-40
2023/03/09 07:00:53;;;;;;;8.98;5.03;;;;;;;;;;5032882;28;20025;-40
2023/03/09 07:03:21;;;;;;;11.68;4.97;;;;;;;;;;5032763;28;20083;-40
2023/03/09 07:05:48;;;;;;;9.00;4.78;;;;;;;;;;5032118;28;20037;-40
2023/03/09 07:08:14;;;;;;;11.07;4.85;;;;;;;;;;5032496;28;20018;-40
2023/03/09 07:10:41;;;;;;;10.68;5.22;;;;;;;;;;5032619;28;20071;-40
2023/03/09 07:13:14;;;;;;;6.50;4.63;;;;;;;;;;5032716;28;20084;-40
2023/03/09 07:15:41;;;;;;;8.50;4.78;;;;;;;;;;5032762;28;20426;-40
2023/03/09 07:18:08;;;;;;;9.95;4.35;;;;;;;;;;5032293;28;20025;-40
2023/03/09 07:20:37;;;;;;;6.82;4.47;;;;;;;;;;5032795;28;20549;-40
2023/03/09 07:23:04;;;;;;;9.35;4.40;;;;;;;;;;5032534;28;20123;-40
2023/03/09 07:25:34;;;;;;;7.55;4.30;;;;;;;;;;5032326;28;20037;-40
2023/03/09 07:28:04;;;;;;;9.35;4.50;;;;;;;;;;5032208;28;20448;-40
2023/03/09 07:30:32;;;;;;;9.27;4.30;;;;;;;;;;5032292;28;20029;-40
2023/03/09 07:32:59;;;;;;;9.82;4.57;;;;;;;;;;5032329;28;20037;-40
2023/03/09 07:35:26;;;;;;;7.88;4.40;;;;;;;;;;5032248;28;20021;-40
2023/03/09 07:37:53;;;;;;;7.07;4.50;;;;;;;;;;5032093;28;20430;-40
2023/03/09 07:40:20;;;;;;;8.68;4.40;;;;;;;;;;5031994;28;20067;-40
2023/03/09 07:42:53;;;;;;;7.53;4.15;;;;;;;;;;5030842;28;20391;-40
2023/03/09 07:45:20;;;;;;;7.95;4.70;;;;;;;;;;5031899;28;20033;-40
2023/03/09 07:47:48;;;;;;;10.13;4.88;;;;;;;;;;5032021;28;20037;-40
2023/03/09 07:50:15;;;;;;;7.22;4.22;;;;;;;;;;5031781;28;20057;-40
2023/03/09 07:52:42;;;;;;;6.32;4.20;;;;;;;;;;5030719;28;20028;-40
2023/03/09 07:55:11;;;;;;;7.45;4.57;;;;;;;;;;5031706;28;20469;-40
2023/03/09 07:57:39;;;;;;;8.07;4.65;;;;;;;;;;5031658;28;20557;-40
2023/03/09 08:00:11;;;;;;;5.93;4.00;;;;;;;;;;5031704;28;20033;-41
2023/03/09 08:02:39;;;;;;;6.53;4.15;;;;;;;;;;5031693;28;20037;-41
2023/03/09 08:05:07;;;;;;;6.43;4.50;;;;;;;;;;5031618;28;20438;-41
2023/03/09 08:07:35;;;;;;;6.13;4.20;;;;;;;;;;5031475;28;20052;-41
2023/03/09 08:10:02;;;;;;;8.43;4.43;;;;;;;;;;5031294;28;20029;-41
2023/03/09 08:12:29;;;;;;;8.10;4.30;;;;;;;;;;5031550;28;20030;-41
2023/03/09 08:14:56;;;;;;;8.07;4.25;;;;;;;;;;5031623;28;20495;-41
2023/03/09 08:17:23;;;;;;;7.75;4.30;;;;;;;;;;5030434;28;20037;-41
2023/03/09 08:19:50;;;;;;;7.45;4.00;;;;;;;;;;5031430;28;20038;-41
2023/03/09 08:22:17;;;;;;;5.03;3.72;;;;;;;;;;5031397;28;20219;-41
2023/03/09 08:24:44;;;;;;;6.85;4.10;;;;;;;;;;5031344;28;20057;-41
2023/03/09 08:27:11;;;;;;;9.88;4.53;;;;;;;;;;5031288;28;20029;-41
2023/03/09 08:29:38;;;;;;;8.13;4.45;;;;;;;;;;5031241;28;20044;-41
2023/03/09 08:32:09;;;;;;;5.15;3.67;;;;;;;;;;5031124;28;20029;-42
2023/03/09 08:34:36;;;;;;;8.77;4.28;;;;;;;;;;5031367;28;20054;-41
2023/03/09 08:37:03;;;;;;;7.65;3.80;;;;;;;;;;5031086;28;20087;-41
2023/03/09 08:39:30;;;;;;;8.63;3.92;;;;;;;;;;5031213;28;20023;-41
2023/03/09 08:41:57;;;;;;;6.43;4.13;;;;;;;;;;5031012;28;20083;-41
2023/03/09 08:44:24;;;;;;;5.40;3.65;;;;;;;;;;5031089;28;20029;-41
2023/03/09 08:46:51;;;;;;;6.72;3.70;;;;;;;;;;5031081;28;20033;-41
2023/03/09 08:49:18;;;;;;;8.48;4.18;;;;;;;;;;5030897;28;20049;-41
2023/03/09 08:51:45;;;;;;;8.25;3.85;;;;;;;;;;5031036;28;20613;-41
2023/03/09 08:54:12;;;;;;;5.68;3.63;;;;;;;;;;5030906;28;20427;-41
2023/03/09 08:56:39;;;;;;;5.85;3.53;;;;;;;;;;5030660;28;20037;-41
2023/03/09 08:59:06;;;;;;;6.28;3.85;;;;;;;;;;5030973;28;20029;-41
2023/03/09 09:01:33;;;;;;;7.28;3.53;;;;;;;;;;5031023;28;20529;-41
2023/03/09 09:04:00;;;;;;;7.88;3.28;;;;;;;;;;5030220;28;20095;-41
2023/03/09 09:06:28;;;;;;;9.02;3.80;;;;;;;;;;5029930;28;20045;-40
2023/03/09 09:08:55;;;;;;;8.82;3.40;;;;;;;;;;5030746;28;20040;-40
2023/03/09 09:11:22;;;;;;;8.23;3.45;;;;;;;;;;5030874;28;20041;-40
2023/03/09 09:13:52;;;;;;;6.15;3.58;;;;;;;;;;5030688;28;20034;-40
2023/03/09 09:16:19;;;;;;;7.95;3.58;;;;;;;;;;5030679;28;20051;-40
2023/03/09 09:18:47;;;;;;;7.35;3.58;;;;;;;;;;5030754;28;20038;-40
2023/03/09 09:21:14;;;;;;;7.35;3.78;;;;;;;;;;5030805;28;20056;-40
2023/03/09 09:23:43;;;;;;;7.32;3.85;;;;;;;;;;5030753;28;20137;-40
2023/03/09 09:26:14;;;;;;;8.48;3.63;;;;;;;;;;5028456;28;20509;-40
2023/03/09 09:28:41;;;;;;;9.65;3.33;;;;;;;;;;5028480;28;20147;-40
2023/03/09 09:31:09;;;;;;;6.13;3.33;;;;;;;;;;5033189;28;20025;-40
2023/03/09 09:33:36;;;;;;;7.35;3.50;;;;;;;;;;5031811;28;20030;-40
2023/03/09 09:36:05;;;;;;;7.45;3.60;;;;;;;;;;5030694;28;20029;-40
2023/03/09 09:38:36;;;;;;;4.72;3.10;;;;;;;;;;5033033;28;20030;-40
2023/03/09 09:41:08;;;;;;;11.80;4.30;;;;;;;;;;5030812;28;20083;-40
2023/03/09 09:43:35;;;;;;;9.15;4.03;;;;;;;;;;5025234;28;20234;-40
2023/03/09 09:46:03;;;;;;;9.63;4.10;;;;;;;;;;5018210;28;20061;-40
2023/03/09 09:48:31;;;;;;;11.27;3.90;;;;;;;;;;5013735;28;20040;-40
2023/03/09 09:51:03;;;;;;;7.18;3.80;;;;;;;;;;5014444;28;20046;-40
2023/03/09 09:53:33;;;;;;;8.32;3.80;;;;;;;;;;5014415;28;20030;-40
2023/03/09 09:56:02;;;;;;;10.13;4.00;;;;;;;;;;5012800;28;20030;-40
2023/03/09 09:58:38;;;;;;;7.15;3.55;;;;;;;;;;5014350;28;20018;-40
2023/03/09 10:01:15;;;;;;;6.97;3.90;;;;;;;;;;5014443;28;20041;-40
2023/03/09 10:03:45;;;;;;;6.95;3.47;;;;;;;;;;5014231;28;20034;-40
2023/03/09 10:06:20;;;;;;;8.30;3.97;;;;;;;;;;5013965;28;20037;-40
2023/03/09 10:08:50;;;;;;;7.03;3.75;;;;;;;;;;5010478;28;20042;-40
2023/03/09 10:11:28;;;;;;;8.25;4.07;;;;;;;;;;5014098;28;20030;-40
2023/03/09 10:13:56;;;;;;;6.22;3.42;;;;;;;;;;5014115;28;20029;-40
2023/03/09 10:16:25;;;;;;;8.52;4.00;;;;;;;;;;5013773;28;20030;-40
2023/03/09 10:18:59;;;;;;;6.22;3.72;;;;;;;;;;5014128;28;20061;-40
2023/03/09 10:21:33;;;;;;;6.38;3.53;;;;;;;;;;5013909;28;20029;-40
2023/03/09 10:24:06;;;;;;;7.10;3.90;;;;;;;;;;5013812;28;20057;-40
2023/03/09 10:26:33;;;;;;;9.13;3.78;;;;;;;;;;5013688;28;20038;-40
2023/03/09 10:29:03;;;;;;;6.95;3.88;;;;;;;;;;5013813;28;20034;-40
2023/03/09 10:31:29;;;;;;;5.72;3.55;;;;;;;;;;5013755;28;20822;-40
2023/03/09 10:34:14;;;;;;;9.52;3.67;;;;;;;;;;5013712;28;20032;-40
2023/03/09 10:37:01;;;;;;;8.07;3.90;;;;;;;;;;5013542;28;20029;-40
2023/03/09 10:39:33;;;;;;;6.60;3.83;;;;;;;;;;5012795;28;20030;-40
2023/03/09 10:42:03;;;;;;;9.55;3.35;;;;;;;;;;5013193;28;20033;-40
2023/03/09 10:44:30;;;;;;;6.75;3.50;;;;;;;;;;5013362;28;20073;-40
2023/03/09 10:47:01;;;;;;;8.73;3.33;;;;;;;;;;5013325;28;20065;-40
2023/03/09 10:49:28;;;;;;;7.82;3.70;;;;;;;;;;5013140;28;20084;-40
2023/03/09 10:51:58;;;;;;;6.63;3.75;;;;;;;;;;5012935;28;20025;-40
2023/03/09 10:54:34;;;;;;;8.98;3.55;;;;;;;;;;5013117;28;20030;-40
2023/03/09 10:57:01;;;;;;;7.90;3.38;;;;;;;;;;5013053;28;20033;-40
2023/03/09 10:59:28;;;;;;;10.73;3.88;;;;;;;;;;5013148;28;20057;-40
2023/03/09 11:01:57;;;;;;;7.82;3.55;;;;;;;;;;5013044;28;20033;-40
2023/03/09 11:04:24;;;;;;;10.75;4.03;;;;;;;;;;5013016;28;20372;-40
2023/03/09 11:06:52;;;;;;;11.75;3.97;;;;;;;;;;5012772;28;20080;-40
2023/03/09 11:09:21;;;;;;;11.40;3.70;;;;;;;;;;5012953;28;20025;-40
2023/03/09 11:11:49;;;;;;;8.65;4.00;;;;;;;;;;5011605;28;20026;-40
2023/03/09 11:14:25;;;;;;;9.98;3.67;;;;;;;;;;5013000;28;20036;-41
2023/03/09 11:16:53;;;;;;;11.77;4.38;;;;;;;;;;5012802;28;20484;-40
2023/03/09 11:19:20;;;;;;;9.52;3.67;;;;;;;;;;5026678;28;20025;-40
2023/03/09 11:21:47;;;;;;;8.80;3.88;;;;;;;;;;5032524;28;20045;-41
2023/03/09 11:24:15;;;;;;;10.45;4.35;;;;;;;;;;5032425;28;20033;-40
2023/03/09 11:26:49;;;;;;;9.63;4.00;;;;;;;;;;5032436;28;20040;-40
2023/03/09 11:29:29;;;;;;;7.53;3.50;;;;;;;;;;5032480;28;20022;-40
2023/03/09 11:31:57;;;;;;;11.45;3.75;;;;;;;;;;5032224;28;20041;-40
2023/03/09 11:34:23;;;;;;;10.98;3.75;;;;;;;;;;5032310;28;20044;-40
2023/03/09 11:36:53;;;;;;;8.02;3.53;;;;;;;;;;5032211;28;20026;-40
2023/03/09 11:39:27;;;;;;;10.00;3.25;;;;;;;;;;5032206;28;20487;-40
2023/03/09 11:41:55;;;;;;;7.20;3.28;;;;;;;;;;5032273;28;20021;-40
2023/03/09 11:44:27;;;;;;;6.22;3.00;;;;;;;;;;5032147;28;20079;-40
2023/03/09 11:46:55;;;;;;;6.30;3.03;;;;;;;;;;5032142;28;20036;-40
2023/03/09 11:49:25;;;;;;;6.70;3.03;;;;;;;;;;5030413;28;20041;-41
2023/03/09 11:51:53;;;;;;;8.35;3.10;;;;;;;;;;5031689;28;20041;-41
2023/03/09 11:54:20;;;;;;;6.97;3.30;;;;;;;;;;5032004;28;20178;-40
2023/03/09 11:56:48;;;;;;;7.00;2.88;;;;;;;;;;5031862;28;20251;-40
2023/03/09 11:59:29;;;;;;;9.00;2.85;;;;;;;;;;5031998;28;20025;-40
2023/03/09 12:02:05;;;;;;;6.70;3.42;;;;;;;;;;5031895;28;20025;-40
2023/03/09 12:04:32;;;;;;;8.02;3.47;;;;;;;;;;5031802;28;20029;-41
2023/03/09 12:07:00;;;;;;;8.55;3.50;;;;;;;;;;5028262;28;20033;-40
2023/03/09 12:09:45;;;;;;;7.00;3.13;;;;;;;;;;5019988;28;20488;-40
2023/03/09 12:12:19;;;;;;;7.22;3.50;;;;;;;;;;5018796;28;20111;-40
2023/03/09 12:14:50;;;;;;;8.18;3.80;;;;;;;;;;5022311;28;20573;-40
2023/03/09 12:17:19;;;;;;;6.88;3.20;;;;;;;;;;5023063;28;20029;-41
2023/03/09 12:19:48;;;;;;;5.32;2.80;;;;;;;;;;5020803;28;20055;-41
2023/03/09 12:22:18;;;;;;;6.75;3.05;;;;;;;;;;5022084;28;20036;-41
2023/03/09 12:24:46;;;;;;;7.40;3.50;;;;;;;;;;5019628;28;20480;-40
2023/03/09 12:27:20;;;;;;;8.75;3.00;;;;;;;;;;5017263;28;20108;-41
2023/03/09 12:29:53;;;;;;;8.55;3.67;;;;;;;;;;5016761;28;20136;-41
2023/03/09 12:32:33;;;;;;;7.57;3.10;;;;;;;;;;5011689;28;20383;-41
2023/03/09 12:35:02;;;;;;;6.90;2.95;;;;;;;;;;5020548;28;20040;-41
2023/03/09 12:37:28;;;;;;;5.70;2.80;;;;;;;;;;5019762;28;20391;-41
2023/03/09 12:39:59;;;;;;;8.00;2.63;;;;;;;;;;5021453;28;20021;-40
2023/03/09 12:42:26;;;;;;;10.68;2.90;;;;;;;;;;5021636;28;20030;-40
2023/03/09 12:44:53;;;;;;;7.82;2.72;;;;;;;;;;5021683;28;20479;-41
2023/03/09 12:47:32;;;;;;;4.93;2.50;;;;;;;;;;5026837;28;20028;-41
2023/03/09 12:49:59;;;;;;;6.10;2.90;;;;;;;;;;5010926;28;20072;-41
2023/03/09 12:52:44;;;;;;;6.43;2.72;;;;;;;;;;5021530;28;20100;-41
2023/03/09 12:55:22;;;;;;;5.25;2.40;;;;;;;;;;5011201;28;20029;-40
2023/03/09 12:57:49;;;;;;;5.07;2.40;;;;;;;;;;5011216;28;20084;-40
2023/03/09 13:00:19;;;;;;;3.67;2.38;;;;;;;;;;5011322;28;20092;-41
2023/03/09 13:03:07;;;;;;;6.93;2.65;;;;;;;;;;5011365;28;20033;-40
2023/03/09 13:05:42;;;;;;;6.40;2.58;;;;;;;;;;5015527;28;20463;-40
2023/03/09 13:08:41;;;;;;;5.25;2.40;;;;;;;;;;5015561;28;20053;-41
2023/03/09 13:11:28;;;;;;;6.00;2.42;;;;;;;;;;5000425;28;20602;-41
2023/03/09 13:13:56;;;;;;;6.03;2.22;;;;;;;;;;5034838;28;20037;-40
2023/03/09 13:16:35;;;;;;;5.22;2.40;;;;;;;;;;5034766;28;20044;-41
2023/03/09 13:19:20;;;;;;;4.75;2.40;;;;;;;;;;5025900;28;20026;-41
2023/03/09 13:21:50;;;;;;;4.43;2.40;;;;;;;;;;5046592;28;20468;-41
2023/03/09 13:24:18;;;;;;;5.70;2.50;;;;;;;;;;5024281;28;20044;-41
2023/03/09 13:26:46;;;;;;;4.22;2.10;;;;;;;;;;5025152;28;20041;-41
2023/03/09 13:29:17;;;;;;;5.55;2.85;;;;;;;;;;5023683;28;20029;-41
2023/03/09 13:31:46;;;;;;;6.55;2.85;;;;;;;;;;5023119;28;20053;-41
2023/03/09 13:34:22;;;;;;;4.65;2.60;;;;;;;;;;5023170;28;20388;-41
2023/03/09 13:36:50;;;;;;;3.40;2.30;;;;;;;;;;5024965;28;20037;-41
2023/03/09 13:39:22;;;;;;;5.07;2.67;;;;;;;;;;5022426;28;20026;-41
2023/03/09 13:41:52;;;;;;;2.75;2.10;;;;;;;;;;5019837;28;20100;-41
2023/03/09 13:44:28;;;;;;;3.05;2.40;;;;;;;;;;5024922;28;20390;-41
2023/03/09 13:46:56;;;;;;;5.85;2.15;;;;;;;;;;5024428;28;20022;-41
2023/03/09 13:49:29;;;;;;;5.65;2.60;;;;;;;;;;5018139;28;20504;-41
2023/03/09 13:52:04;;;;;;;5.75;2.75;;;;;;;;;;5029259;28;20022;-41
2023/03/09 13:54:38;;;;;;;8.75;2.20;;;;;;;;;;5030720;28;20025;-41
2023/03/09 13:57:05;;;;;;;6.90;2.47;;;;;;;;;;5031590;28;20048;-42
2023/03/09 14:00:08;;;;;;;4.13;2.53;;;;;;;;;;5032025;28;20103;-42
2023/03/09 14:02:42;;;;;;;6.97;2.75;;;;;;;;;;4993881;28;20132;-41
2023/03/09 14:05:26;;;;;;;4.90;2.33;;;;;;;;;;5028385;28;20724;-41
2023/03/09 14:08:04;;;;;;;4.35;2.17;;;;;;;;;;5031382;28;20487;-42
2023/03/09 14:10:31;;;;;;;5.20;2.45;;;;;;;;;;5032180;28;20080;-41
2023/03/09 14:13:00;;;;;;;4.65;2.60;;;;;;;;;;5032435;28;20044;-41
2023/03/09 14:15:28;;;;;;;6.55;2.55;;;;;;;;;;5032822;28;20033;-41
2023/03/09 14:17:57;;;;;;;8.63;2.70;;;;;;;;;;5032608;28;20033;-41
2023/03/09 14:20:25;;;;;;;11.00;3.17;;;;;;;;;;5032598;28;20034;-41
2023/03/09 14:22:52;;;;;;;7.88;2.67;;;;;;;;;;5032301;28;20051;-41
2023/03/09 14:25:25;;;;;;;6.90;2.42;;;;;;;;;;5032148;28;20054;-41
2023/03/09 14:27:52;;;;;;;6.22;2.55;;;;;;;;;;5032053;28;20021;-41
2023/03/09 14:30:40;;;;;;;7.32;2.60;;;;;;;;;;5032335;28;20021;-41
2023/03/09 14:33:22;;;;;;;4.60;2.50;;;;;;;;;;5030158;28;20047;-41
2023/03/09 14:35:50;;;;;;;6.95;2.47;;;;;;;;;;5030666;28;20040;-42
2023/03/09 14:38:21;;;;;;;6.03;2.63;;;;;;;;;;5030803;28;20044;-42
2023/03/09 14:40:48;;;;;;;4.10;2.08;;;;;;;;;;5030671;28;20029;-41
2023/03/09 14:43:53;;;;;;;5.40;2.60;;;;;;;;;;5029982;28;20033;-41
2023/03/09 14:46:25;;;;;;;7.20;2.72;;;;;;;;;;4990038;28;20141;-41
2023/03/09 14:48:56;;;;;;;7.20;2.50;;;;;;;;;;4989137;28;20050;-41
2023/03/09 14:51:27;;;;;;;7.72;2.17;;;;;;;;;;5009376;28;20276;-41